sensor_id;sensor_type;location;lat;lon;timestamp;P1;durP1;ratioP1;P2;durP2;ratioP2
16484;SDS011;8353;47.856;12.344;2023-05-02T00:00:08;1.23;;;1.13;;
16484;SDS011;8353;47.856;12.344;2023-05-02T00:02:56;1.30;;;1.20;;
16484;SDS011;8353;47.856;12.344;2023-05-02T00:05:43;1.50;;;1.37;;
16484;SDS011;8353;47.856;12.344;2023-05-02T00:08:30;1.37;;;1.20;;
16484;SDS011;8353;47.856;12.344;2023-05-02T00:11:16;1.13;;;1.00;;
16484;SDS011;8353;47.856;12.344;2023-05-02T00:14:05;1.83;;;1.60;;
16484;SDS011;8353;47.856;12.344;2023-05-02T00:16:51;1.30;;;1.20;;
16484;SDS011;8353;47.856;12.344;2023-05-02T00:19:38;1.07;;;1.07;;
16484;SDS011;8353;47.856;12.344;2023-05-02T00:22:25;0.83;;;0.83;;
16484;SDS011;8353;47.856;12.344;2023-05-02T00:25:12;1.20;;;1.10;;
16484;SDS011;8353;47.856;12.344;2023-05-02T00:28:01;1.40;;;1.30;;
16484;SDS011;8353;47.856;12.344;2023-05-02T00:30:49;1.40;;;1.30;;
16484;SDS011;8353;47.856;12.344;2023-05-02T00:33:35;0.83;;;0.83;;
16484;SDS011;8353;47.856;12.344;2023-05-02T00:36:22;1.20;;;1.10;;
16484;SDS011;8353;47.856;12.344;2023-05-02T00:39:09;1.83;;;1.23;;
16484;SDS011;8353;47.856;12.344;2023-05-02T00:41:56;1.03;;;0.93;;
16484;SDS011;8353;47.856;12.344;2023-05-02T00:44:42;0.80;;;0.80;;
16484;SDS011;8353;47.856;12.344;2023-05-02T00:47:32;1.20;;;1.10;;
16484;SDS011;8353;47.856;12.344;2023-05-02T00:50:19;0.83;;;0.80;;
16484;SDS011;8353;47.856;12.344;2023-05-02T00:53:06;1.30;;;1.20;;
16484;SDS011;8353;47.856;12.344;2023-05-02T00:55:53;0.97;;;0.97;;
16484;SDS011;8353;47.856;12.344;2023-05-02T00:58:40;0.90;;;0.90;;
16484;SDS011;8353;47.856;12.344;2023-05-02T01:01:29;1.13;;;1.03;;
16484;SDS011;8353;47.856;12.344;2023-05-02T01:04:29;0.80;;;0.80;;
16484;SDS011;8353;47.856;12.344;2023-05-02T01:07:26;0.93;;;0.90;;
16484;SDS011;8353;47.856;12.344;2023-05-02T01:10:44;0.70;;;0.70;;
16484;SDS011;8353;47.856;12.344;2023-05-02T01:13:33;0.83;;;0.83;;
16484;SDS011;8353;47.856;12.344;2023-05-02T01:16:22;0.83;;;0.83;;
16484;SDS011;8353;47.856;12.344;2023-05-02T01:19:11;1.30;;;1.20;;
16484;SDS011;8353;47.856;12.344;2023-05-02T01:22:07;1.03;;;1.03;;
16484;SDS011;8353;47.856;12.344;2023-05-02T01:24:59;1.27;;;1.10;;
16484;SDS011;8353;47.856;12.344;2023-05-02T01:27:50;1.00;;;1.00;;
16484;SDS011;8353;47.856;12.344;2023-05-02T01:30:44;1.20;;;1.10;;
16484;SDS011;8353;47.856;12.344;2023-05-02T01:33:33;1.83;;;0.70;;
16484;SDS011;8353;47.856;12.344;2023-05-02T01:36:21;0.80;;;0.80;;
16484;SDS011;8353;47.856;12.344;2023-05-02T01:39:12;2.30;;;1.10;;
16484;SDS011;8353;47.856;12.344;2023-05-02T01:42:03;0.90;;;0.90;;
16484;SDS011;8353;47.856;12.344;2023-05-02T01:44:50;0.90;;;0.90;;
16484;SDS011;8353;47.856;12.344;2023-05-02T01:47:43;0.87;;;0.87;;
16484;SDS011;8353;47.856;12.344;2023-05-02T01:50:30;1.00;;;0.97;;
16484;SDS011;8353;47.856;12.344;2023-05-02T01:53:19;0.87;;;0.87;;
16484;SDS011;8353;47.856;12.344;2023-05-02T01:56:07;2.23;;;0.97;;
16484;SDS011;8353;47.856;12.344;2023-05-02T01:58:54;1.63;;;1.23;;
16484;SDS011;8353;47.856;12.344;2023-05-02T02:01:42;2.30;;;1.10;;
16484;SDS011;8353;47.856;12.344;2023-05-02T02:04:31;4.33;;;1.27;;
16484;SDS011;8353;47.856;12.344;2023-05-02T02:07:20;5.93;;;1.50;;
16484;SDS011;8353;47.856;12.344;2023-05-02T02:10:07;3.87;;;1.13;;
16484;SDS011;8353;47.856;12.344;2023-05-02T02:12:56;4.57;;;1.33;;
16484;SDS011;8353;47.856;12.344;2023-05-02T02:15:52;1.73;;;0.90;;
16484;SDS011;8353;47.856;12.344;2023-05-02T02:18:44;1.47;;;1.20;;
16484;SDS011;8353;47.856;12.344;2023-05-02T02:21:34;2.27;;;1.03;;
16484;SDS011;8353;47.856;12.344;2023-05-02T02:24:22;2.70;;;1.00;;
16484;SDS011;8353;47.856;12.344;2023-05-02T02:27:10;2.07;;;1.10;;
16484;SDS011;8353;47.856;12.344;2023-05-02T02:29:57;2.40;;;1.50;;
16484;SDS011;8353;47.856;12.344;2023-05-02T02:32:44;1.20;;;1.10;;
16484;SDS011;8353;47.856;12.344;2023-05-02T02:35:32;1.10;;;0.77;;
16484;SDS011;8353;47.856;12.344;2023-05-02T02:38:27;1.60;;;1.20;;
16484;SDS011;8353;47.856;12.344;2023-05-02T02:41:21;1.50;;;1.37;;
16484;SDS011;8353;47.856;12.344;2023-05-02T02:44:15;1.47;;;1.33;;
16484;SDS011;8353;47.856;12.344;2023-05-02T02:47:12;1.00;;;0.90;;
16484;SDS011;8353;47.856;12.344;2023-05-02T02:50:09;1.87;;;1.10;;
16484;SDS011;8353;47.856;12.344;2023-05-02T02:53:02;1.10;;;1.00;;
16484;SDS011;8353;47.856;12.344;2023-05-02T02:55:54;1.27;;;1.00;;
16484;SDS011;8353;47.856;12.344;2023-05-02T02:58:45;1.30;;;1.20;;
16484;SDS011;8353;47.856;12.344;2023-05-02T03:01:36;2.10;;;1.57;;
16484;SDS011;8353;47.856;12.344;2023-05-02T03:04:27;0.87;;;0.80;;
16484;SDS011;8353;47.856;12.344;2023-05-02T03:07:16;1.23;;;1.00;;
16484;SDS011;8353;47.856;12.344;2023-05-02T03:10:03;1.67;;;1.47;;
16484;SDS011;8353;47.856;12.344;2023-05-02T03:12:52;1.73;;;1.63;;
16484;SDS011;8353;47.856;12.344;2023-05-02T03:16:00;1.10;;;0.90;;
16484;SDS011;8353;47.856;12.344;2023-05-02T03:19:03;0.70;;;0.70;;
16484;SDS011;8353;47.856;12.344;2023-05-02T03:21:51;1.20;;;1.10;;
16484;SDS011;8353;47.856;12.344;2023-05-02T03:24:38;1.67;;;1.57;;
16484;SDS011;8353;47.856;12.344;2023-05-02T03:27:24;1.20;;;1.10;;
16484;SDS011;8353;47.856;12.344;2023-05-02T03:30:13;1.27;;;1.07;;
16484;SDS011;8353;47.856;12.344;2023-05-02T03:32:59;1.57;;;0.90;;
16484;SDS011;8353;47.856;12.344;2023-05-02T03:35:48;2.07;;;1.77;;
16484;SDS011;8353;47.856;12.344;2023-05-02T03:38:35;1.10;;;1.00;;
16484;SDS011;8353;47.856;12.344;2023-05-02T03:41:22;1.00;;;1.00;;
16484;SDS011;8353;47.856;12.344;2023-05-02T03:44:09;1.57;;;1.47;;
16484;SDS011;8353;47.856;12.344;2023-05-02T03:46:57;0.90;;;0.80;;
16484;SDS011;8353;47.856;12.344;2023-05-02T03:49:44;1.40;;;1.30;;
16484;SDS011;8353;47.856;12.344;2023-05-02T03:52:32;1.87;;;1.73;;
16484;SDS011;8353;47.856;12.344;2023-05-02T03:55:19;1.37;;;1.27;;
16484;SDS011;8353;47.856;12.344;2023-05-02T03:58:09;1.60;;;1.50;;
16484;SDS011;8353;47.856;12.344;2023-05-02T04:00:56;1.40;;;1.30;;
16484;SDS011;8353;47.856;12.344;2023-05-02T04:03:44;0.90;;;0.90;;
16484;SDS011;8353;47.856;12.344;2023-05-02T04:06:30;1.60;;;1.40;;
16484;SDS011;8353;47.856;12.344;2023-05-02T04:09:17;1.33;;;1.00;;
16484;SDS011;8353;47.856;12.344;2023-05-02T04:12:09;1.23;;;1.13;;
16484;SDS011;8353;47.856;12.344;2023-05-02T04:14:55;1.30;;;1.20;;
16484;SDS011;8353;47.856;12.344;2023-05-02T04:17:44;1.67;;;1.43;;
16484;SDS011;8353;47.856;12.344;2023-05-02T04:20:32;1.53;;;1.43;;
16484;SDS011;8353;47.856;12.344;2023-05-02T04:23:19;1.20;;;1.10;;
16484;SDS011;8353;47.856;12.344;2023-05-02T04:26:06;2.80;;;2.33;;
16484;SDS011;8353;47.856;12.344;2023-05-02T04:28:53;2.67;;;2.37;;
16484;SDS011;8353;47.856;12.344;2023-05-02T04:31:40;2.10;;;1.87;;
16484;SDS011;8353;47.856;12.344;2023-05-02T04:34:27;2.10;;;1.77;;
16484;SDS011;8353;47.856;12.344;2023-05-02T04:37:15;2.27;;;1.50;;
16484;SDS011;8353;47.856;12.344;2023-05-02T04:40:02;1.10;;;1.00;;
16484;SDS011;8353;47.856;12.344;2023-05-02T04:42:50;1.30;;;1.20;;
16484;SDS011;8353;47.856;12.344;2023-05-02T04:45:36;4.63;;;1.13;;
16484;SDS011;8353;47.856;12.344;2023-05-02T04:48:23;1.40;;;1.13;;
16484;SDS011;8353;47.856;12.344;2023-05-02T04:51:10;1.50;;;1.40;;
16484;SDS011;8353;47.856;12.344;2023-05-02T04:53:58;2.17;;;1.50;;
16484;SDS011;8353;47.856;12.344;2023-05-02T04:56:45;1.20;;;1.10;;
16484;SDS011;8353;47.856;12.344;2023-05-02T04:59:32;2.53;;;1.70;;
16484;SDS011;8353;47.856;12.344;2023-05-02T05:02:19;2.03;;;1.50;;
16484;SDS011;8353;47.856;12.344;2023-05-02T05:05:06;1.80;;;1.70;;
16484;SDS011;8353;47.856;12.344;2023-05-02T05:07:53;1.37;;;1.27;;
16484;SDS011;8353;47.856;12.344;2023-05-02T05:10:41;2.20;;;1.50;;
16484;SDS011;8353;47.856;12.344;2023-05-02T05:13:28;2.00;;;1.87;;
16484;SDS011;8353;47.856;12.344;2023-05-02T05:16:16;1.73;;;1.17;;
16484;SDS011;8353;47.856;12.344;2023-05-02T05:19:03;1.50;;;1.10;;
16484;SDS011;8353;47.856;12.344;2023-05-02T05:21:49;1.30;;;1.10;;
16484;SDS011;8353;47.856;12.344;2023-05-02T05:24:36;1.90;;;1.50;;
16484;SDS011;8353;47.856;12.344;2023-05-02T05:27:24;3.00;;;1.83;;
16484;SDS011;8353;47.856;12.344;2023-05-02T05:30:11;1.27;;;1.17;;
16484;SDS011;8353;47.856;12.344;2023-05-02T05:32:58;1.67;;;1.57;;
16484;SDS011;8353;47.856;12.344;2023-05-02T05:35:44;1.10;;;1.00;;
16484;SDS011;8353;47.856;12.344;2023-05-02T05:38:32;1.60;;;1.27;;
16484;SDS011;8353;47.856;12.344;2023-05-02T05:41:20;1.53;;;1.43;;
16484;SDS011;8353;47.856;12.344;2023-05-02T05:44:10;1.67;;;1.57;;
16484;SDS011;8353;47.856;12.344;2023-05-02T05:46:56;2.23;;;1.47;;
16484;SDS011;8353;47.856;12.344;2023-05-02T05:49:43;1.80;;;1.70;;
16484;SDS011;8353;47.856;12.344;2023-05-02T05:52:30;2.57;;;1.50;;
16484;SDS011;8353;47.856;12.344;2023-05-02T05:55:17;1.30;;;1.10;;
16484;SDS011;8353;47.856;12.344;2023-05-02T05:58:04;2.60;;;1.77;;
16484;SDS011;8353;47.856;12.344;2023-05-02T06:00:57;2.23;;;1.80;;
16484;SDS011;8353;47.856;12.344;2023-05-02T06:03:44;2.40;;;1.83;;
16484;SDS011;8353;47.856;12.344;2023-05-02T06:06:33;3.30;;;1.97;;
16484;SDS011;8353;47.856;12.344;2023-05-02T06:09:20;5.23;;;3.47;;
16484;SDS011;8353;47.856;12.344;2023-05-02T06:12:08;2.53;;;2.23;;
16484;SDS011;8353;47.856;12.344;2023-05-02T06:14:55;1.80;;;1.70;;
16484;SDS011;8353;47.856;12.344;2023-05-02T06:17:43;2.23;;;1.77;;
16484;SDS011;8353;47.856;12.344;2023-05-02T06:20:34;3.80;;;2.50;;
16484;SDS011;8353;47.856;12.344;2023-05-02T06:23:21;3.07;;;2.27;;
16484;SDS011;8353;47.856;12.344;2023-05-02T06:26:07;2.43;;;1.93;;
16484;SDS011;8353;47.856;12.344;2023-05-02T06:28:56;2.43;;;1.57;;
16484;SDS011;8353;47.856;12.344;2023-05-02T06:31:48;2.00;;;1.50;;
16484;SDS011;8353;47.856;12.344;2023-05-02T06:34:36;1.73;;;1.47;;
16484;SDS011;8353;47.856;12.344;2023-05-02T06:37:23;3.60;;;1.70;;
16484;SDS011;8353;47.856;12.344;2023-05-02T06:40:10;1.70;;;1.60;;
16484;SDS011;8353;47.856;12.344;2023-05-02T06:42:57;1.23;;;1.13;;
16484;SDS011;8353;47.856;12.344;2023-05-02T06:45:44;1.37;;;1.27;;
16484;SDS011;8353;47.856;12.344;2023-05-02T06:48:31;1.27;;;1.10;;
16484;SDS011;8353;47.856;12.344;2023-05-02T06:51:19;2.03;;;1.23;;
16484;SDS011;8353;47.856;12.344;2023-05-02T06:54:07;1.20;;;1.00;;
16484;SDS011;8353;47.856;12.344;2023-05-02T06:56:54;1.80;;;1.27;;
16484;SDS011;8353;47.856;12.344;2023-05-02T06:59:41;2.17;;;1.63;;
16484;SDS011;8353;47.856;12.344;2023-05-02T07:02:30;2.37;;;1.33;;
16484;SDS011;8353;47.856;12.344;2023-05-02T07:05:16;1.47;;;1.37;;
16484;SDS011;8353;47.856;12.344;2023-05-02T07:08:05;2.30;;;1.47;;
16484;SDS011;8353;47.856;12.344;2023-05-02T07:10:53;3.10;;;1.20;;
16484;SDS011;8353;47.856;12.344;2023-05-02T07:13:41;1.13;;;1.07;;
16484;SDS011;8353;47.856;12.344;2023-05-02T07:16:28;1.33;;;1.10;;
16484;SDS011;8353;47.856;12.344;2023-05-02T07:19:17;4.03;;;1.60;;
16484;SDS011;8353;47.856;12.344;2023-05-02T07:22:05;3.23;;;1.30;;
16484;SDS011;8353;47.856;12.344;2023-05-02T07:24:57;1.93;;;1.43;;
16484;SDS011;8353;47.856;12.344;2023-05-02T07:27:44;3.03;;;1.33;;
16484;SDS011;8353;47.856;12.344;2023-05-02T07:30:31;2.00;;;1.60;;
16484;SDS011;8353;47.856;12.344;2023-05-02T07:33:18;3.23;;;1.37;;
16484;SDS011;8353;47.856;12.344;2023-05-02T07:36:05;1.50;;;1.40;;
16484;SDS011;8353;47.856;12.344;2023-05-02T07:38:52;1.50;;;1.37;;
16484;SDS011;8353;47.856;12.344;2023-05-02T07:41:40;1.20;;;1.10;;
16484;SDS011;8353;47.856;12.344;2023-05-02T07:44:26;2.50;;;1.47;;
16484;SDS011;8353;47.856;12.344;2023-05-02T07:47:15;1.63;;;1.33;;
16484;SDS011;8353;47.856;12.344;2023-05-02T07:50:02;3.13;;;1.60;;
16484;SDS011;8353;47.856;12.344;2023-05-02T07:52:49;1.40;;;1.30;;
16484;SDS011;8353;47.856;12.344;2023-05-02T07:55:36;1.60;;;1.50;;
16484;SDS011;8353;47.856;12.344;2023-05-02T07:58:24;2.93;;;1.20;;
16484;SDS011;8353;47.856;12.344;2023-05-02T08:01:11;1.80;;;1.20;;
16484;SDS011;8353;47.856;12.344;2023-05-02T08:03:57;2.27;;;1.90;;
16484;SDS011;8353;47.856;12.344;2023-05-02T08:06:44;4.30;;;1.30;;
16484;SDS011;8353;47.856;12.344;2023-05-02T08:09:31;1.83;;;0.90;;
16484;SDS011;8353;47.856;12.344;2023-05-02T08:12:18;3.05;;;1.40;;
16484;SDS011;8353;47.856;12.344;2023-05-02T08:15:07;2.10;;;1.75;;
16484;SDS011;8353;47.856;12.344;2023-05-02T08:17:56;2.30;;;1.40;;
16484;SDS011;8353;47.856;12.344;2023-05-02T08:20:43;1.70;;;1.52;;
16484;SDS011;8353;47.856;12.344;2023-05-02T08:23:30;1.48;;;1.38;;
16484;SDS011;8353;47.856;12.344;2023-05-02T08:26:17;2.58;;;1.70;;
16484;SDS011;8353;47.856;12.344;2023-05-02T08:29:06;1.90;;;1.70;;
16484;SDS011;8353;47.856;12.344;2023-05-02T08:31:56;1.45;;;1.35;;
16484;SDS011;8353;47.856;12.344;2023-05-02T08:34:44;1.75;;;1.65;;
16484;SDS011;8353;47.856;12.344;2023-05-02T08:37:30;1.67;;;1.50;;
16484;SDS011;8353;47.856;12.344;2023-05-02T08:40:17;1.23;;;1.13;;
16484;SDS011;8353;47.856;12.344;2023-05-02T08:43:07;3.63;;;1.73;;
16484;SDS011;8353;47.856;12.344;2023-05-02T08:45:56;3.53;;;2.08;;
16484;SDS011;8353;47.856;12.344;2023-05-02T08:48:48;2.05;;;1.52;;
16484;SDS011;8353;47.856;12.344;2023-05-02T08:51:36;2.22;;;1.38;;
16484;SDS011;8353;47.856;12.344;2023-05-02T08:54:24;2.13;;;1.77;;
16484;SDS011;8353;47.856;12.344;2023-05-02T08:57:11;1.98;;;1.35;;
16484;SDS011;8353;47.856;12.344;2023-05-02T08:59:58;2.60;;;2.40;;
16484;SDS011;8353;47.856;12.344;2023-05-02T09:02:49;1.58;;;1.45;;
16484;SDS011;8353;47.856;12.344;2023-05-02T09:05:44;4.30;;;2.00;;
16484;SDS011;8353;47.856;12.344;2023-05-02T09:08:36;1.65;;;1.55;;
16484;SDS011;8353;47.856;12.344;2023-05-02T09:11:22;1.67;;;1.58;;
16484;SDS011;8353;47.856;12.344;2023-05-02T09:14:12;2.90;;;2.70;;
16484;SDS011;8353;47.856;12.344;2023-05-02T09:17:00;2.28;;;2.08;;
16484;SDS011;8353;47.856;12.344;2023-05-02T09:19:48;1.30;;;1.20;;
16484;SDS011;8353;47.856;12.344;2023-05-02T09:22:50;1.98;;;1.88;;
16484;SDS011;8353;47.856;12.344;2023-05-02T09:25:39;1.98;;;1.85;;
16484;SDS011;8353;47.856;12.344;2023-05-02T09:28:39;3.30;;;2.30;;
16484;SDS011;8353;47.856;12.344;2023-05-02T09:31:27;1.38;;;1.27;;
16484;SDS011;8353;47.856;12.344;2023-05-02T09:34:18;3.55;;;3.22;;
16484;SDS011;8353;47.856;12.344;2023-05-02T09:37:04;1.77;;;1.67;;
16484;SDS011;8353;47.856;12.344;2023-05-02T09:40:05;2.35;;;2.15;;
16484;SDS011;8353;47.856;12.344;2023-05-02T09:42:53;3.25;;;2.88;;
16484;SDS011;8353;47.856;12.344;2023-05-02T09:45:47;1.92;;;1.83;;
16484;SDS011;8353;47.856;12.344;2023-05-02T09:48:50;3.67;;;3.38;;
16484;SDS011;8353;47.856;12.344;2023-05-02T09:51:39;3.05;;;2.75;;
16484;SDS011;8353;47.856;12.344;2023-05-02T09:54:33;2.95;;;2.03;;
16484;SDS011;8353;47.856;12.344;2023-05-02T09:57:22;4.38;;;3.97;;
16484;SDS011;8353;47.856;12.344;2023-05-02T10:00:39;5.43;;;3.45;;
16484;SDS011;8353;47.856;12.344;2023-05-02T10:03:29;3.70;;;3.33;;
16484;SDS011;8353;47.856;12.344;2023-05-02T10:06:17;3.60;;;2.80;;
16484;SDS011;8353;47.856;12.344;2023-05-02T10:09:05;2.42;;;2.08;;
16484;SDS011;8353;47.856;12.344;2023-05-02T10:11:55;3.55;;;3.25;;
16484;SDS011;8353;47.856;12.344;2023-05-02T10:14:44;7.57;;;4.53;;
16484;SDS011;8353;47.856;12.344;2023-05-02T10:17:39;4.57;;;3.58;;
16484;SDS011;8353;47.856;12.344;2023-05-02T10:20:29;2.50;;;2.25;;
16484;SDS011;8353;47.856;12.344;2023-05-02T10:23:19;3.10;;;2.42;;
16484;SDS011;8353;47.856;12.344;2023-05-02T10:26:07;3.90;;;3.60;;
16484;SDS011;8353;47.856;12.344;2023-05-02T10:28:56;2.22;;;2.03;;
16484;SDS011;8353;47.856;12.344;2023-05-02T10:31:44;3.90;;;3.20;;
16484;SDS011;8353;47.856;12.344;2023-05-02T10:34:34;3.10;;;2.83;;
16484;SDS011;8353;47.856;12.344;2023-05-02T10:37:21;4.05;;;3.72;;
16484;SDS011;8353;47.856;12.344;2023-05-02T10:40:10;5.35;;;3.67;;
16484;SDS011;8353;47.856;12.344;2023-05-02T10:42:58;3.38;;;3.08;;
16484;SDS011;8353;47.856;12.344;2023-05-02T10:45:45;4.18;;;3.80;;
16484;SDS011;8353;47.856;12.344;2023-05-02T10:48:33;5.32;;;4.15;;
16484;SDS011;8353;47.856;12.344;2023-05-02T10:51:26;2.67;;;2.47;;
16484;SDS011;8353;47.856;12.344;2023-05-02T10:54:23;5.57;;;3.97;;
16484;SDS011;8353;47.856;12.344;2023-05-02T10:57:10;1.83;;;1.52;;
16484;SDS011;8353;47.856;12.344;2023-05-02T10:59:57;3.13;;;2.67;;
16484;SDS011;8353;47.856;12.344;2023-05-02T11:03:07;2.47;;;1.80;;
16484;SDS011;8353;47.856;12.344;2023-05-02T11:06:04;2.38;;;2.17;;
16484;SDS011;8353;47.856;12.344;2023-05-02T11:08:52;4.20;;;3.70;;
16484;SDS011;8353;47.856;12.344;2023-05-02T11:11:40;2.97;;;2.35;;
16484;SDS011;8353;47.856;12.344;2023-05-02T11:14:43;1.48;;;1.38;;
16484;SDS011;8353;47.856;12.344;2023-05-02T11:17:49;4.57;;;3.80;;
16484;SDS011;8353;47.856;12.344;2023-05-02T11:20:44;4.95;;;3.58;;
16484;SDS011;8353;47.856;12.344;2023-05-02T11:23:32;5.15;;;2.78;;
16484;SDS011;8353;47.856;12.344;2023-05-02T11:26:20;2.85;;;2.30;;
16484;SDS011;8353;47.856;12.344;2023-05-02T11:29:10;3.05;;;2.65;;
16484;SDS011;8353;47.856;12.344;2023-05-02T11:31:56;3.88;;;3.58;;
16484;SDS011;8353;47.856;12.344;2023-05-02T11:34:43;2.45;;;2.25;;
16484;SDS011;8353;47.856;12.344;2023-05-02T11:37:31;5.15;;;3.17;;
16484;SDS011;8353;47.856;12.344;2023-05-02T11:40:20;7.93;;;3.72;;
16484;SDS011;8353;47.856;12.344;2023-05-02T11:43:13;3.78;;;2.40;;
16484;SDS011;8353;47.856;12.344;2023-05-02T11:46:01;4.20;;;3.80;;
16484;SDS011;8353;47.856;12.344;2023-05-02T11:48:49;3.00;;;2.10;;
16484;SDS011;8353;47.856;12.344;2023-05-02T11:51:36;3.10;;;2.25;;
16484;SDS011;8353;47.856;12.344;2023-05-02T11:54:24;2.85;;;2.15;;
16484;SDS011;8353;47.856;12.344;2023-05-02T11:57:16;4.85;;;3.30;;
16484;SDS011;8353;47.856;12.344;2023-05-02T12:00:03;2.40;;;2.20;;
16484;SDS011;8353;47.856;12.344;2023-05-02T12:02:51;1.83;;;1.73;;
16484;SDS011;8353;47.856;12.344;2023-05-02T12:05:38;2.40;;;2.15;;
16484;SDS011;8353;47.856;12.344;2023-05-02T12:08:25;4.05;;;3.05;;
16484;SDS011;8353;47.856;12.344;2023-05-02T12:11:14;3.50;;;3.22;;
16484;SDS011;8353;47.856;12.344;2023-05-02T12:14:07;3.97;;;2.47;;
16484;SDS011;8353;47.856;12.344;2023-05-02T12:16:55;4.25;;;3.45;;
16484;SDS011;8353;47.856;12.344;2023-05-02T12:19:43;1.92;;;1.75;;
16484;SDS011;8353;47.856;12.344;2023-05-02T12:22:30;5.60;;;4.00;;
16484;SDS011;8353;47.856;12.344;2023-05-02T12:25:17;5.97;;;3.70;;
16484;SDS011;8353;47.856;12.344;2023-05-02T12:28:04;3.35;;;3.05;;
16484;SDS011;8353;47.856;12.344;2023-05-02T12:30:53;3.15;;;2.15;;
16484;SDS011;8353;47.856;12.344;2023-05-02T12:33:42;2.55;;;2.35;;
16484;SDS011;8353;47.856;12.344;2023-05-02T12:36:32;5.82;;;3.10;;
16484;SDS011;8353;47.856;12.344;2023-05-02T12:39:19;5.90;;;3.65;;
16484;SDS011;8353;47.856;12.344;2023-05-02T12:42:20;4.38;;;3.00;;
16484;SDS011;8353;47.856;12.344;2023-05-02T12:45:15;2.65;;;2.40;;
16484;SDS011;8353;47.856;12.344;2023-05-02T12:48:17;2.90;;;2.70;;
16484;SDS011;8353;47.856;12.344;2023-05-02T12:51:05;2.80;;;2.45;;
16484;SDS011;8353;47.856;12.344;2023-05-02T12:54:07;4.25;;;2.80;;
16484;SDS011;8353;47.856;12.344;2023-05-02T12:57:05;3.22;;;2.92;;
16484;SDS011;8353;47.856;12.344;2023-05-02T12:59:51;2.78;;;2.58;;
16484;SDS011;8353;47.856;12.344;2023-05-02T13:02:39;2.30;;;2.10;;
16484;SDS011;8353;47.856;12.344;2023-05-02T13:05:27;3.20;;;2.88;;
16484;SDS011;8353;47.856;12.344;2023-05-02T13:08:14;3.50;;;2.90;;
16484;SDS011;8353;47.856;12.344;2023-05-02T13:11:00;2.63;;;2.40;;
16484;SDS011;8353;47.856;12.344;2023-05-02T13:13:50;2.35;;;2.15;;
16484;SDS011;8353;47.856;12.344;2023-05-02T13:16:37;2.95;;;2.72;;
16484;SDS011;8353;47.856;12.344;2023-05-02T13:19:24;2.80;;;2.60;;
16484;SDS011;8353;47.856;12.344;2023-05-02T13:22:17;3.55;;;3.25;;
16484;SDS011;8353;47.856;12.344;2023-05-02T13:25:04;5.10;;;3.08;;
16484;SDS011;8353;47.856;12.344;2023-05-02T13:27:52;3.75;;;3.28;;
16484;SDS011;8353;47.856;12.344;2023-05-02T13:30:40;2.95;;;2.75;;
16484;SDS011;8353;47.856;12.344;2023-05-02T13:33:28;3.60;;;3.30;;
16484;SDS011;8353;47.856;12.344;2023-05-02T13:36:15;3.38;;;3.00;;
16484;SDS011;8353;47.856;12.344;2023-05-02T13:39:03;3.78;;;3.47;;
16484;SDS011;8353;47.856;12.344;2023-05-02T13:41:49;4.78;;;3.50;;
16484;SDS011;8353;47.856;12.344;2023-05-02T13:44:36;3.90;;;3.50;;
16484;SDS011;8353;47.856;12.344;2023-05-02T13:47:23;2.75;;;2.30;;
16484;SDS011;8353;47.856;12.344;2023-05-02T13:50:10;3.13;;;2.92;;
16484;SDS011;8353;47.856;12.344;2023-05-02T13:52:57;3.65;;;3.15;;
16484;SDS011;8353;47.856;12.344;2023-05-02T13:55:45;4.88;;;4.47;;
16484;SDS011;8353;47.856;12.344;2023-05-02T13:58:32;2.85;;;2.03;;
16484;SDS011;8353;47.856;12.344;2023-05-02T14:01:18;3.28;;;2.97;;
16484;SDS011;8353;47.856;12.344;2023-05-02T14:04:05;2.70;;;2.50;;
16484;SDS011;8353;47.856;12.344;2023-05-02T14:06:52;2.38;;;2.17;;
16484;SDS011;8353;47.856;12.344;2023-05-02T14:09:44;4.30;;;3.50;;
16484;SDS011;8353;47.856;12.344;2023-05-02T14:12:32;1.98;;;1.88;;
16484;SDS011;8353;47.856;12.344;2023-05-02T14:15:18;4.15;;;3.75;;
16484;SDS011;8353;47.856;12.344;2023-05-02T14:18:05;3.92;;;3.53;;
16484;SDS011;8353;47.856;12.344;2023-05-02T14:20:52;4.28;;;3.88;;
16484;SDS011;8353;47.856;12.344;2023-05-02T14:23:39;2.95;;;2.75;;
16484;SDS011;8353;47.856;12.344;2023-05-02T14:26:26;2.67;;;2.47;;
16484;SDS011;8353;47.856;12.344;2023-05-02T14:29:14;2.50;;;2.30;;
16484;SDS011;8353;47.856;12.344;2023-05-02T14:32:01;3.60;;;3.30;;
16484;SDS011;8353;47.856;12.344;2023-05-02T14:34:47;3.53;;;3.22;;
16484;SDS011;8353;47.856;12.344;2023-05-02T14:37:34;3.58;;;3.00;;
16484;SDS011;8353;47.856;12.344;2023-05-02T14:40:21;2.57;;;2.37;;
16484;SDS011;8353;47.856;12.344;2023-05-02T14:43:07;3.53;;;3.22;;
16484;SDS011;8353;47.856;12.344;2023-05-02T14:45:57;3.80;;;2.57;;
16484;SDS011;8353;47.856;12.344;2023-05-02T14:48:44;3.57;;;3.27;;
16484;SDS011;8353;47.856;12.344;2023-05-02T14:51:30;2.70;;;2.50;;
16484;SDS011;8353;47.856;12.344;2023-05-02T14:54:25;4.97;;;4.53;;
16484;SDS011;8353;47.856;12.344;2023-05-02T14:57:12;2.00;;;1.90;;
16484;SDS011;8353;47.856;12.344;2023-05-02T14:59:59;3.38;;;3.08;;
16484;SDS011;8353;47.856;12.344;2023-05-02T15:03:12;3.92;;;2.78;;
16484;SDS011;8353;47.856;12.344;2023-05-02T15:05:58;1.97;;;1.83;;
16484;SDS011;8353;47.856;12.344;2023-05-02T15:08:46;3.38;;;3.08;;
16484;SDS011;8353;47.856;12.344;2023-05-02T15:11:35;2.67;;;2.47;;
16484;SDS011;8353;47.856;12.344;2023-05-02T15:14:22;3.28;;;2.13;;
16484;SDS011;8353;47.856;12.344;2023-05-02T15:17:08;3.50;;;3.20;;
16484;SDS011;8353;47.856;12.344;2023-05-02T15:19:56;3.92;;;3.60;;
16484;SDS011;8353;47.856;12.344;2023-05-02T15:22:43;3.13;;;2.90;;
16484;SDS011;8353;47.856;12.344;2023-05-02T15:25:30;2.42;;;2.17;;
16484;SDS011;8353;47.856;12.344;2023-05-02T15:28:16;3.55;;;3.20;;
16484;SDS011;8353;47.856;12.344;2023-05-02T15:31:03;3.30;;;3.00;;
16484;SDS011;8353;47.856;12.344;2023-05-02T15:33:50;2.55;;;2.35;;
16484;SDS011;8353;47.856;12.344;2023-05-02T15:36:38;1.90;;;1.80;;
16484;SDS011;8353;47.856;12.344;2023-05-02T15:39:25;2.57;;;2.37;;
16484;SDS011;8353;47.856;12.344;2023-05-02T15:42:12;3.23;;;2.93;;
16484;SDS011;8353;47.856;12.344;2023-05-02T15:44:59;2.97;;;2.27;;
16484;SDS011;8353;47.856;12.344;2023-05-02T15:47:45;2.30;;;1.80;;
16484;SDS011;8353;47.856;12.344;2023-05-02T15:50:32;2.87;;;2.43;;
16484;SDS011;8353;47.856;12.344;2023-05-02T15:53:20;3.30;;;3.00;;
16484;SDS011;8353;47.856;12.344;2023-05-02T15:56:07;3.17;;;2.97;;
16484;SDS011;8353;47.856;12.344;2023-05-02T15:58:54;3.10;;;2.77;;
16484;SDS011;8353;47.856;12.344;2023-05-02T16:01:41;2.47;;;2.27;;
16484;SDS011;8353;47.856;12.344;2023-05-02T16:04:27;2.07;;;1.97;;
16484;SDS011;8353;47.856;12.344;2023-05-02T16:07:16;2.77;;;1.93;;
16484;SDS011;8353;47.856;12.344;2023-05-02T16:10:04;2.30;;;2.10;;
16484;SDS011;8353;47.856;12.344;2023-05-02T16:12:54;2.20;;;2.00;;
16484;SDS011;8353;47.856;12.344;2023-05-02T16:15:41;2.17;;;2.00;;
16484;SDS011;8353;47.856;12.344;2023-05-02T16:18:27;1.70;;;1.60;;
16484;SDS011;8353;47.856;12.344;2023-05-02T16:21:15;2.67;;;1.90;;
16484;SDS011;8353;47.856;12.344;2023-05-02T16:24:02;1.67;;;1.57;;
16484;SDS011;8353;47.856;12.344;2023-05-02T16:26:50;1.70;;;1.52;;
16484;SDS011;8353;47.856;12.344;2023-05-02T16:29:37;2.30;;;2.05;;
16484;SDS011;8353;47.856;12.344;2023-05-02T16:32:23;2.37;;;2.10;;
16484;SDS011;8353;47.856;12.344;2023-05-02T16:35:12;2.53;;;2.33;;
16484;SDS011;8353;47.856;12.344;2023-05-02T16:37:59;1.45;;;1.35;;
16484;SDS011;8353;47.856;12.344;2023-05-02T16:40:46;2.30;;;2.13;;
16484;SDS011;8353;47.856;12.344;2023-05-02T16:43:34;3.00;;;2.80;;
16484;SDS011;8353;47.856;12.344;2023-05-02T16:46:22;2.35;;;2.15;;
16484;SDS011;8353;47.856;12.344;2023-05-02T16:49:08;1.95;;;1.83;;
16484;SDS011;8353;47.856;12.344;2023-05-02T16:51:55;2.07;;;1.80;;
16484;SDS011;8353;47.856;12.344;2023-05-02T16:54:42;2.17;;;1.80;;
16484;SDS011;8353;47.856;12.344;2023-05-02T16:57:29;2.00;;;1.88;;